Time;durP1;ratioP1;P1;durP2;ratioP2;P2;SDS_P1;SDS_P2;PMS_P1;PMS_P2;Temp;Humidity;BMP_temperature;BMP_pressure;BME280_temperature;BME280_humidity;BME280_pressure;Samples;Min_cycle;Max_cycle;Signal;HPM_P1;HPM_P2
2020/12/02 00:00:53;;;;;;;232.17;221.40;;;;;;;;;;5091380;28;20185;-72
2020/12/02 00:03:26;;;;;;;363.07;344.90;;;;;;;;;;5088044;28;20269;-72
2020/12/02 00:05:53;;;;;;;368.33;349.43;;;;;;;;;;5087609;28;20189;-72
2020/12/02 00:08:23;;;;;;;248.47;237.03;;;;;;;;;;5090058;28;20943;-72
2020/12/02 00:10:50;;;;;;;236.50;226.43;;;;;;;;;;5092919;28;20185;-72
2020/12/02 00:13:24;;;;;;;354.70;337.07;;;;;;;;;;5085388;28;20225;-72
2020/12/02 00:15:50;;;;;;;436.03;412.30;;;;;;;;;;5093546;28;20206;-71
2020/12/02 00:18:18;;;;;;;316.03;300.67;;;;;;;;;;5097336;28;20180;-73
2020/12/02 00:20:44;;;;;;;228.27;217.57;;;;;;;;;;5096405;28;20199;-71
2020/12/02 00:23:11;;;;;;;211.20;201.90;;;;;;;;;;5096789;27;20180;-71
2020/12/02 00:25:38;;;;;;;219.47;209.27;;;;;;;;;;5099733;28;20180;-71
2020/12/02 00:28:10;;;;;;;233.87;223.50;;;;;;;;;;5090881;28;20185;-70
2020/12/02 00:30:37;;;;;;;196.50;188.03;;;;;;;;;;5087535;28;20203;-71
2020/12/02 00:33:08;;;;;;;216.70;207.30;;;;;;;;;;5085515;28;20195;-70
2020/12/02 00:35:38;;;;;;;410.13;387.07;;;;;;;;;;5094000;28;20185;-70
2020/12/02 00:38:05;;;;;;;362.33;343.63;;;;;;;;;;5085416;28;20777;-71
2020/12/02 00:40:31;;;;;;;371.43;352.13;;;;;;;;;;5101201;28;20216;-71
2020/12/02 00:42:58;;;;;;;286.03;272.00;;;;;;;;;;5098924;28;20200;-71
2020/12/02 00:45:25;;;;;;;337.87;322.83;;;;;;;;;;5090731;27;20186;-70
2020/12/02 00:47:52;;;;;;;337.40;320.73;;;;;;;;;;5092574;28;20211;-70
2020/12/02 00:50:22;;;;;;;451.47;424.77;;;;;;;;;;5098524;28;20574;-71
2020/12/02 00:53:06;;;;;;;503.60;473.77;;;;;;;;;;5089049;28;20360;-70
2020/12/02 00:55:33;;;;;;;291.97;278.77;;;;;;;;;;5095231;28;20188;-72
2020/12/02 00:58:01;;;;;;;454.20;427.97;;;;;;;;;;5084206;28;20554;-70
2020/12/02 01:00:29;;;;;;;484.17;455.20;;;;;;;;;;5093432;28;20187;-72
2020/12/02 01:03:03;;;;;;;348.67;330.90;;;;;;;;;;5086784;28;20206;-70
2020/12/02 01:05:30;;;;;;;406.20;383.57;;;;;;;;;;5091140;28;20204;-71
2020/12/02 01:08:10;;;;;;;313.03;298.23;;;;;;;;;;5094363;28;20189;-72
2020/12/02 01:10:37;;;;;;;290.47;275.73;;;;;;;;;;5093938;28;20184;-70
2020/12/02 01:13:04;;;;;;;353.43;335.43;;;;;;;;;;5086429;28;20308;-70
2020/12/02 01:15:31;;;;;;;350.37;333.97;;;;;;;;;;5091871;28;20185;-70
2020/12/02 01:18:16;;;;;;;328.43;314.53;;;;;;;;;;5082677;28;20195;-72
2020/12/02 01:20:42;;;;;;;364.47;345.77;;;;;;;;;;5094516;28;20185;-71
2020/12/02 01:23:12;;;;;;;443.07;418.07;;;;;;;;;;5096752;27;20928;-71
2020/12/02 01:25:39;;;;;;;311.27;297.93;;;;;;;;;;5090561;27;20197;-70
2020/12/02 01:28:06;;;;;;;414.30;393.23;;;;;;;;;;5084228;28;20188;-70
2020/12/02 01:30:34;;;;;;;437.23;412.23;;;;;;;;;;5092341;28;20200;-72
2020/12/02 01:33:01;;;;;;;329.13;312.70;;;;;;;;;;5094014;28;20304;-70
2020/12/02 01:35:29;;;;;;;405.53;384.80;;;;;;;;;;5083512;28;20193;-72
2020/12/02 01:37:56;;;;;;;392.80;371.40;;;;;;;;;;5098266;27;20664;-72
2020/12/02 13:45:55;;;;;;;372.30;347.97;;;;;;;;;;5045615;28;20583;-70
2020/12/02 13:48:21;;;;;;;595.43;553.60;;;;;;;;;;5047143;28;20244;-69
2020/12/02 13:50:52;;;;;;;375.83;351.53;;;;;;;;;;5046572;28;20190;-70
2020/12/02 13:53:23;;;;;;;527.87;491.50;;;;;;;;;;5049847;28;20852;-72
2020/12/02 13:55:49;;;;;;;349.13;328.37;;;;;;;;;;5048305;28;20191;-71
2020/12/02 13:58:35;;;;;;;279.33;262.57;;;;;;;;;;5044670;28;20190;-72
2020/12/02 14:01:26;;;;;;;403.87;375.97;;;;;;;;;;5055872;28;20215;-71
2020/12/02 14:04:15;;;;;;;431.13;401.60;;;;;;;;;;5039796;28;20211;-72
2020/12/02 14:06:42;;;;;;;453.27;425.63;;;;;;;;;;5037258;28;20226;-73
2020/12/02 14:09:11;;;;;;;443.13;421.30;;;;;;;;;;5051258;28;20180;-70
2020/12/02 14:11:49;;;;;;;480.10;452.13;;;;;;;;;;5053152;28;20175;-73
2020/12/02 14:14:18;;;;;;;252.33;238.43;;;;;;;;;;5049599;28;20207;-73
2020/12/02 14:16:45;;;;;;;247.80;233.97;;;;;;;;;;5051628;28;20877;-74
2020/12/02 14:19:12;;;;;;;394.37;368.63;;;;;;;;;;5046124;28;20211;-73
2020/12/02 14:21:39;;;;;;;251.73;237.50;;;;;;;;;;5047838;28;20184;-73
2020/12/02 14:24:05;;;;;;;439.37;410.67;;;;;;;;;;5048211;28;20466;-73
2020/12/02 14:26:32;;;;;;;322.90;304.17;;;;;;;;;;5049276;28;20191;-72
2020/12/02 14:28:59;;;;;;;348.93;327.23;;;;;;;;;;5046932;28;20944;-74
2020/12/02 14:31:27;;;;;;;415.77;388.07;;;;;;;;;;5054809;28;20215;-73
2020/12/02 14:33:53;;;;;;;433.33;404.00;;;;;;;;;;5047109;28;20289;-74
2020/12/02 14:36:20;;;;;;;339.47;318.80;;;;;;;;;;5042106;28;20183;-74
2020/12/02 14:38:49;;;;;;;565.77;524.10;;;;;;;;;;5040278;28;20531;-73
2020/12/02 14:41:18;;;;;;;261.53;245.60;;;;;;;;;;5048550;28;20188;-70
2020/12/02 14:43:45;;;;;;;342.43;321.60;;;;;;;;;;5045609;28;20199;-71
2020/12/02 14:46:12;;;;;;;395.87;370.77;;;;;;;;;;5043572;28;20198;-71
2020/12/02 14:48:40;;;;;;;519.53;484.97;;;;;;;;;;5041936;28;20270;-72
2020/12/02 14:51:07;;;;;;;267.23;252.67;;;;;;;;;;5047951;28;20226;-71
2020/12/02 14:53:33;;;;;;;474.60;441.77;;;;;;;;;;5042866;28;20994;-71
2020/12/02 14:56:07;;;;;;;236.93;223.90;;;;;;;;;;5035269;28;21131;-74
2020/12/02 14:58:34;;;;;;;559.83;522.47;;;;;;;;;;5023169;28;20830;-76
2020/12/02 15:01:02;;;;;;;426.50;400.73;;;;;;;;;;5028670;28;20187;-74
2020/12/02 15:03:33;;;;;;;597.47;556.40;;;;;;;;;;5029317;28;20195;-75
2020/12/02 15:06:00;;;;;;;535.83;501.37;;;;;;;;;;5036356;28;20191;-76
2020/12/02 15:08:26;;;;;;;468.87;438.23;;;;;;;;;;5032373;28;20188;-74
2020/12/02 15:10:53;;;;;;;594.27;552.47;;;;;;;;;;5032535;28;20296;-74
2020/12/02 15:13:21;;;;;;;470.07;440.67;;;;;;;;;;5029824;28;20776;-76
2020/12/02 15:15:48;;;;;;;307.70;289.93;;;;;;;;;;5024241;28;20208;-76
2020/12/02 15:18:15;;;;;;;556.57;520.10;;;;;;;;;;5026488;28;20907;-74
2020/12/02 15:20:44;;;;;;;621.27;577.13;;;;;;;;;;5032261;28;20287;-75
2020/12/02 15:23:15;;;;;;;456.30;428.90;;;;;;;;;;5028637;28;20904;-75
2020/12/02 15:25:41;;;;;;;430.97;404.47;;;;;;;;;;5031010;28;20538;-71
2020/12/02 15:28:11;;;;;;;669.07;621.27;;;;;;;;;;5036148;28;20910;-70
2020/12/02 15:30:42;;;;;;;569.43;531.13;;;;;;;;;;5026250;28;20176;-72
2020/12/02 15:33:13;;;;;;;587.83;549.77;;;;;;;;;;5024351;28;20176;-71
2020/12/02 15:35:41;;;;;;;569.70;531.73;;;;;;;;;;5029600;28;20211;-73
2020/12/02 15:38:11;;;;;;;653.67;608.67;;;;;;;;;;5030045;28;20180;-70
2020/12/02 15:40:46;;;;;;;579.10;538.57;;;;;;;;;;5035095;28;20812;-70
2020/12/02 15:43:12;;;;;;;536.10;502.07;;;;;;;;;;5035140;28;20184;-71
2020/12/02 15:45:45;;;;;;;526.30;492.37;;;;;;;;;;5028826;28;20262;-68
2020/12/02 15:48:13;;;;;;;494.73;461.83;;;;;;;;;;5031421;28;20269;-69
2020/12/02 15:50:43;;;;;;;624.23;580.70;;;;;;;;;;5039761;28;20171;-69
2020/12/02 15:53:28;;;;;;;601.50;559.30;;;;;;;;;;5031451;28;20192;-69
2020/12/02 15:56:03;;;;;;;612.63;568.67;;;;;;;;;;5029940;28;20187;-70
2020/12/02 15:58:48;;;;;;;608.47;566.70;;;;;;;;;;5033519;28;20183;-70
2020/12/02 16:01:16;;;;;;;504.93;472.97;;;;;;;;;;5033752;28;20218;-69
2020/12/02 16:03:43;;;;;;;477.63;449.10;;;;;;;;;;5036297;28;20294;-69
2020/12/02 16:06:10;;;;;;;625.97;582.37;;;;;;;;;;5027358;28;20275;-68
2020/12/02 16:08:44;;;;;;;532.30;497.90;;;;;;;;;;5031724;28;20191;-69
2020/12/02 16:11:20;;;;;;;476.80;447.87;;;;;;;;;;5031459;28;20183;-69
2020/12/02 16:13:47;;;;;;;639.63;594.50;;;;;;;;;;5037884;28;20970;-69
2020/12/02 16:16:15;;;;;;;627.73;584.23;;;;;;;;;;5036425;28;20192;-69
2020/12/02 16:18:41;;;;;;;685.20;635.20;;;;;;;;;;5033557;28;20193;-68
2020/12/02 16:21:18;;;;;;;395.10;373.40;;;;;;;;;;5029354;28;20176;-70
2020/12/02 16:23:47;;;;;;;543.60;509.43;;;;;;;;;;5032179;28;20211;-71
2020/12/02 16:26:15;;;;;;;592.70;551.30;;;;;;;;;;5034203;28;20979;-68
2020/12/02 16:28:43;;;;;;;403.60;381.00;;;;;;;;;;5030063;28;20577;-69
2020/12/02 16:31:14;;;;;;;361.80;341.63;;;;;;;;;;5025645;28;20923;-69
2020/12/02 16:33:46;;;;;;;529.10;497.23;;;;;;;;;;5033415;28;20176;-61
2020/12/02 16:36:17;;;;;;;490.27;460.13;;;;;;;;;;5030532;28;20200;-61
2020/12/02 16:38:46;;;;;;;676.47;628.73;;;;;;;;;;5026730;28;20783;-61
2020/12/02 16:41:20;;;;;;;612.97;571.90;;;;;;;;;;5028990;28;20199;-61
2020/12/02 16:43:52;;;;;;;535.30;501.83;;;;;;;;;;5031308;28;20285;-61
2020/12/02 16:46:19;;;;;;;509.37;478.33;;;;;;;;;;5030568;28;20746;-61
2020/12/02 16:48:53;;;;;;;529.20;494.70;;;;;;;;;;5036271;28;20286;-61
2020/12/02 16:51:39;;;;;;;558.60;523.43;;;;;;;;;;5033255;28;20179;-61
2020/12/02 16:54:05;;;;;;;236.37;224.47;;;;;;;;;;5025688;28;20213;-61
2020/12/02 16:56:35;;;;;;;592.37;552.73;;;;;;;;;;5025669;28;20184;-70
2020/12/02 16:59:02;;;;;;;493.60;462.17;;;;;;;;;;5023416;28;20196;-63
2020/12/02 17:01:29;;;;;;;514.47;481.63;;;;;;;;;;5036379;28;20203;-63
2020/12/02 17:04:02;;;;;;;687.90;638.73;;;;;;;;;;5025228;28;20209;-71
2020/12/02 17:06:37;;;;;;;598.57;559.43;;;;;;;;;;5028211;28;20240;-71
2020/12/02 17:09:05;;;;;;;606.97;567.40;;;;;;;;;;5021195;28;20191;-70
2020/12/02 17:11:52;;;;;;;554.93;519.43;;;;;;;;;;5026168;28;20180;-62
2020/12/02 17:14:18;;;;;;;586.13;547.53;;;;;;;;;;5030806;28;20210;-62
2020/12/02 17:16:48;;;;;;;571.00;534.37;;;;;;;;;;5029451;28;20187;-63
2020/12/02 17:19:29;;;;;;;490.87;459.83;;;;;;;;;;5028225;28;20188;-63
2020/12/02 17:22:07;;;;;;;579.37;540.47;;;;;;;;;;5023520;28;20759;-63
2020/12/02 17:24:47;;;;;;;577.93;538.90;;;;;;;;;;5020342;28;20409;-63
2020/12/02 17:27:23;;;;;;;576.73;538.43;;;;;;;;;;5031871;28;20214;-62
2020/12/02 17:30:08;;;;;;;577.97;538.70;;;;;;;;;;5033205;28;20190;-62
2020/12/02 17:32:37;;;;;;;570.90;533.37;;;;;;;;;;5030538;28;20184;-62
2020/12/02 17:35:18;;;;;;;500.20;468.67;;;;;;;;;;5027709;28;20184;-62
2020/12/02 17:38:04;;;;;;;444.67;417.23;;;;;;;;;;5029538;28;20192;-62
2020/12/02 17:40:35;;;;;;;632.90;588.93;;;;;;;;;;5021518;28;20185;-62
2020/12/02 17:43:20;;;;;;;664.07;618.47;;;;;;;;;;5028401;28;20188;-62
2020/12/02 17:45:47;;;;;;;644.17;600.13;;;;;;;;;;5022961;28;20230;-62
2020/12/02 17:48:17;;;;;;;672.20;625.87;;;;;;;;;;5036001;28;20299;-62
2020/12/02 17:50:49;;;;;;;564.87;529.27;;;;;;;;;;5022673;28;20203;-62
2020/12/02 17:53:20;;;;;;;535.47;500.43;;;;;;;;;;5027759;28;20238;-63
2020/12/02 17:55:50;;;;;;;655.00;609.30;;;;;;;;;;5033121;28;20179;-62
2020/12/02 17:58:16;;;;;;;626.90;585.73;;;;;;;;;;5032295;28;20188;-62
2020/12/02 18:01:12;;;;;;;683.87;637.70;;;;;;;;;;5028783;28;20190;-62
2020/12/02 18:03:49;;;;;;;721.73;671.30;;;;;;;;;;5027425;28;20683;-63
2020/12/02 18:06:25;;;;;;;701.30;652.07;;;;;;;;;;5029778;28;20172;-62
2020/12/02 18:08:58;;;;;;;626.50;584.60;;;;;;;;;;5031514;28;20215;-62
2020/12/02 18:11:33;;;;;;;598.67;558.30;;;;;;;;;;5038074;28;20180;-62
2020/12/02 18:14:00;;;;;;;494.30;462.97;;;;;;;;;;5028344;28;20276;-62
2020/12/02 18:16:31;;;;;;;553.03;516.57;;;;;;;;;;5032786;28;20215;-61
2020/12/02 18:19:16;;;;;;;502.83;471.20;;;;;;;;;;5033510;28;20181;-63
2020/12/02 18:21:46;;;;;;;584.87;546.93;;;;;;;;;;5027296;28;20331;-63
2020/12/02 18:24:23;;;;;;;590.90;553.10;;;;;;;;;;5019143;28;20223;-62
2020/12/02 18:27:16;;;;;;;614.90;572.77;;;;;;;;;;5032636;28;20180;-62
2020/12/02 18:29:57;;;;;;;513.33;481.53;;;;;;;;;;5018370;28;20317;-63
2020/12/02 18:32:44;;;;;;;582.60;546.20;;;;;;;;;;5029442;28;20223;-61
2020/12/02 18:35:18;;;;;;;711.40;660.17;;;;;;;;;;5025576;28;20216;-62
2020/12/02 18:37:44;;;;;;;531.40;498.77;;;;;;;;;;5030861;28;20283;-62
2020/12/02 18:40:18;;;;;;;618.60;577.97;;;;;;;;;;5041377;28;20578;-61
2020/12/02 18:42:48;;;;;;;555.07;518.23;;;;;;;;;;5028864;28;20189;-61
2020/12/02 18:45:19;;;;;;;657.40;612.03;;;;;;;;;;5023026;28;20264;-61
2020/12/02 18:47:50;;;;;;;614.93;571.30;;;;;;;;;;5038427;28;20175;-62
2020/12/02 18:50:19;;;;;;;610.27;566.77;;;;;;;;;;5040791;28;20312;-62
2020/12/02 18:52:46;;;;;;;580.63;541.03;;;;;;;;;;5041183;28;20188;-61
2020/12/02 18:55:12;;;;;;;599.77;557.63;;;;;;;;;;5032865;28;20208;-61
2020/12/02 18:57:39;;;;;;;509.27;474.70;;;;;;;;;;5032511;28;20192;-61
2020/12/02 19:00:07;;;;;;;455.13;425.57;;;;;;;;;;5034238;28;20195;-62
2020/12/02 19:02:34;;;;;;;588.27;546.57;;;;;;;;;;5032815;28;20180;-73
2020/12/02 19:05:16;;;;;;;307.67;290.90;;;;;;;;;;5030595;28;20865;-72
2020/12/02 19:08:06;;;;;;;459.43;431.17;;;;;;;;;;5032626;28;20191;-73
2020/12/02 19:10:33;;;;;;;431.87;404.97;;;;;;;;;;5033943;28;20518;-73
2020/12/02 19:13:04;;;;;;;614.80;573.97;;;;;;;;;;5035241;28;20962;-72
2020/12/02 19:15:40;;;;;;;369.37;348.50;;;;;;;;;;5032152;28;20177;-72
2020/12/02 19:18:16;;;;;;;389.83;366.90;;;;;;;;;;5033680;28;20192;-73
2020/12/02 19:20:45;;;;;;;552.80;516.60;;;;;;;;;;5036860;28;20183;-75
2020/12/02 19:23:11;;;;;;;511.73;478.33;;;;;;;;;;5025611;28;20190;-75
2020/12/02 19:25:38;;;;;;;526.37;491.00;;;;;;;;;;5026661;28;20223;-75
2020/12/02 19:28:23;;;;;;;641.27;597.27;;;;;;;;;;5026165;28;20184;-74
2020/12/02 19:31:01;;;;;;;567.27;530.37;;;;;;;;;;5032449;28;20183;-75
2020/12/02 19:33:41;;;;;;;527.87;493.13;;;;;;;;;;5037206;28;20191;-75
2020/12/02 19:36:19;;;;;;;551.47;514.70;;;;;;;;;;5030435;28;20185;-74
2020/12/02 19:38:52;;;;;;;481.87;451.40;;;;;;;;;;5033314;28;20180;-75
2020/12/02 19:41:37;;;;;;;523.07;490.90;;;;;;;;;;5034051;28;20290;-74
2020/12/02 19:44:08;;;;;;;495.53;466.87;;;;;;;;;;5030609;28;20252;-73
2020/12/02 19:46:34;;;;;;;528.20;494.07;;;;;;;;;;5034008;28;20195;-75
2020/12/02 19:49:01;;;;;;;514.97;481.93;;;;;;;;;;5029318;28;20288;-74
2020/12/02 19:51:27;;;;;;;691.43;643.37;;;;;;;;;;5034895;28;20270;-75
2020/12/02 19:53:59;;;;;;;533.00;499.03;;;;;;;;;;5034441;28;20294;-75
2020/12/02 19:56:27;;;;;;;489.50;458.60;;;;;;;;;;5038276;28;20441;-75
2020/12/02 19:58:53;;;;;;;511.20;478.07;;;;;;;;;;5032007;28;20200;-72
2020/12/02 20:01:26;;;;;;;524.20;489.70;;;;;;;;;;5033254;28;20545;-71
2020/12/02 20:03:58;;;;;;;493.50;462.67;;;;;;;;;;5030804;28;20180;-75
2020/12/02 20:06:38;;;;;;;413.53;389.67;;;;;;;;;;5030350;28;20191;-73
2020/12/02 20:09:13;;;;;;;441.57;413.53;;;;;;;;;;5033049;28;20185;-73
2020/12/02 20:11:58;;;;;;;472.07;443.87;;;;;;;;;;5031534;28;20244;-74
2020/12/02 20:14:35;;;;;;;455.23;427.17;;;;;;;;;;5027566;28;20254;-74
2020/12/02 20:17:12;;;;;;;571.23;534.37;;;;;;;;;;5029195;28;20187;-73
2020/12/02 20:19:57;;;;;;;542.07;507.80;;;;;;;;;;5034619;28;20202;-74
2020/12/02 20:22:24;;;;;;;461.70;435.70;;;;;;;;;;5039486;28;20187;-73
2020/12/02 20:25:06;;;;;;;664.93;618.50;;;;;;;;;;5018985;28;20285;-73
2020/12/02 20:27:32;;;;;;;609.63;568.43;;;;;;;;;;5034177;28;20181;-72
2020/12/02 20:30:00;;;;;;;549.10;515.00;;;;;;;;;;5040935;28;20182;-74
2020/12/02 20:32:33;;;;;;;747.50;693.67;;;;;;;;;;5030164;28;20183;-67
2020/12/02 20:35:07;;;;;;;506.37;477.30;;;;;;;;;;5028456;28;20192;-66
2020/12/02 20:37:56;;;;;;;547.73;513.97;;;;;;;;;;5033613;28;20871;-66
2020/12/02 20:40:23;;;;;;;517.67;486.37;;;;;;;;;;5028535;28;20194;-67
2020/12/02 20:42:55;;;;;;;445.40;420.63;;;;;;;;;;5025830;28;20286;-65
2020/12/02 20:45:23;;;;;;;655.07;608.67;;;;;;;;;;5033139;28;20266;-66
2020/12/02 20:47:55;;;;;;;644.80;599.97;;;;;;;;;;5031560;28;20182;-66
2020/12/02 20:50:21;;;;;;;531.17;497.17;;;;;;;;;;5032398;28;20184;-66
2020/12/02 20:52:56;;;;;;;389.83;368.47;;;;;;;;;;5033686;28;20187;-66
2020/12/02 20:55:25;;;;;;;290.10;275.33;;;;;;;;;;5032789;28;20278;-68
2020/12/02 20:57:53;;;;;;;415.13;391.63;;;;;;;;;;5023632;28;20307;-68
2020/12/02 21:00:22;;;;;;;250.07;237.67;;;;;;;;;;5030207;28;20184;-69
2020/12/02 21:02:49;;;;;;;347.37;327.07;;;;;;;;;;5028769;28;20207;-69
2020/12/02 21:05:24;;;;;;;347.70;328.80;;;;;;;;;;5028991;28;20254;-69
2020/12/02 21:08:09;;;;;;;262.17;249.00;;;;;;;;;;5030813;28;20215;-69
2020/12/02 21:10:35;;;;;;;417.60;393.83;;;;;;;;;;5033121;28;20187;-68
2020/12/02 21:13:02;;;;;;;260.30;247.47;;;;;;;;;;5030499;28;20277;-70
2020/12/02 21:15:28;;;;;;;390.07;367.80;;;;;;;;;;5025770;28;20603;-70
2020/12/02 21:18:06;;;;;;;320.43;303.20;;;;;;;;;;5028661;28;20620;-69
2020/12/02 21:20:36;;;;;;;277.93;262.83;;;;;;;;;;5035277;28;20180;-69
2020/12/02 21:23:10;;;;;;;277.50;262.80;;;;;;;;;;5027715;28;20277;-69
2020/12/02 21:25:49;;;;;;;240.03;228.80;;;;;;;;;;5038300;28;20287;-70
2020/12/02 21:28:18;;;;;;;185.17;177.00;;;;;;;;;;5033015;28;20688;-70
2020/12/02 21:30:47;;;;;;;240.73;229.53;;;;;;;;;;5025662;28;20269;-69
2020/12/02 21:33:24;;;;;;;249.93;235.53;;;;;;;;;;5024543;28;20180;-69
2020/12/02 21:36:14;;;;;;;234.17;222.03;;;;;;;;;;5020738;28;20191;-70
2020/12/02 21:38:52;;;;;;;163.63;156.27;;;;;;;;;;5020605;28;20964;-70
2020/12/02 21:41:33;;;;;;;215.60;204.17;;;;;;;;;;5025039;28;20207;-71
2020/12/02 21:44:05;;;;;;;203.57;194.17;;;;;;;;;;5020894;28;20310;-72
2020/12/02 21:46:44;;;;;;;132.53;125.80;;;;;;;;;;5023844;28;20365;-69
2020/12/02 21:49:34;;;;;;;151.17;144.00;;;;;;;;;;5024942;28;20214;-69
2020/12/02 21:52:09;;;;;;;276.80;262.27;;;;;;;;;;5020078;28;20195;-71
2020/12/02 21:54:54;;;;;;;81.30;76.73;;;;;;;;;;5021591;28;20670;-70
2020/12/02 21:57:21;;;;;;;118.07;112.60;;;;;;;;;;5023379;28;20187;-69
2020/12/02 21:59:49;;;;;;;105.33;99.87;;;;;;;;;;5019552;28;20299;-69
2020/12/02 22:02:27;;;;;;;89.43;83.63;;;;;;;;;;5024104;28;20219;-67
2020/12/02 22:04:54;;;;;;;115.90;110.10;;;;;;;;;;5023789;28;20217;-67
2020/12/02 22:07:27;;;;;;;128.80;123.63;;;;;;;;;;5023857;28;20189;-65
2020/12/02 22:09:53;;;;;;;212.27;201.47;;;;;;;;;;5031018;28;20198;-67
2020/12/02 22:12:20;;;;;;;124.70;119.10;;;;;;;;;;5033566;28;20633;-66
2020/12/02 22:14:50;;;;;;;202.90;192.83;;;;;;;;;;5031696;28;20187;-66
2020/12/02 22:17:35;;;;;;;83.20;79.63;;;;;;;;;;5027485;28;20192;-67
2020/12/02 22:20:22;;;;;;;62.30;59.23;;;;;;;;;;5028661;28;20181;-67
2020/12/02 22:22:51;;;;;;;139.90;133.67;;;;;;;;;;5036466;28;20714;-68
2020/12/02 22:25:27;;;;;;;283.43;269.50;;;;;;;;;;5036755;28;20365;-68
2020/12/02 22:27:58;;;;;;;371.03;351.87;;;;;;;;;;5029331;28;20274;-67
2020/12/02 22:30:29;;;;;;;242.03;230.40;;;;;;;;;;5035634;28;20353;-68
2020/12/02 22:33:05;;;;;;;163.50;156.07;;;;;;;;;;5029565;28;20191;-72
2020/12/02 22:35:35;;;;;;;193.07;183.23;;;;;;;;;;5037250;28;20187;-68
2020/12/02 22:38:07;;;;;;;149.43;142.27;;;;;;;;;;5034914;28;20245;-68
2020/12/02 22:40:53;;;;;;;221.43;210.00;;;;;;;;;;5039158;28;20195;-64
2020/12/02 22:43:38;;;;;;;240.87;228.77;;;;;;;;;;5034791;28;20350;-65
2020/12/02 22:46:16;;;;;;;137.43;131.00;;;;;;;;;;5034230;28;20230;-66
2020/12/02 22:48:43;;;;;;;215.00;204.03;;;;;;;;;;5024595;28;20873;-66
2020/12/02 22:51:14;;;;;;;196.97;187.23;;;;;;;;;;5028225;28;20899;-67
2020/12/02 22:53:44;;;;;;;158.47;150.77;;;;;;;;;;5027898;28;20182;-67
2020/12/02 22:56:11;;;;;;;202.47;193.40;;;;;;;;;;5032313;28;21070;-62
2020/12/02 22:58:38;;;;;;;249.03;236.33;;;;;;;;;;5031798;28;20191;-62
2020/12/02 23:01:09;;;;;;;250.20;237.50;;;;;;;;;;5027488;28;20196;-62
2020/12/02 23:03:46;;;;;;;207.07;197.53;;;;;;;;;;5032134;28;20190;-62
2020/12/02 23:06:31;;;;;;;433.90;407.67;;;;;;;;;;5039509;28;20860;-62
2020/12/02 23:09:04;;;;;;;238.60;227.10;;;;;;;;;;5033970;28;20187;-62
2020/12/02 23:11:37;;;;;;;190.87;181.73;;;;;;;;;;5037347;28;20191;-62
2020/12/02 23:14:05;;;;;;;260.33;246.63;;;;;;;;;;5036018;28;20266;-62
2020/12/02 23:16:39;;;;;;;249.77;236.70;;;;;;;;;;5037300;28;20202;-62
2020/12/02 23:19:06;;;;;;;215.57;205.33;;;;;;;;;;5031844;28;20200;-63
2020/12/02 23:21:34;;;;;;;340.20;321.00;;;;;;;;;;5028053;28;20285;-63
2020/12/02 23:24:01;;;;;;;288.13;273.30;;;;;;;;;;5033374;28;20965;-64
2020/12/02 23:26:36;;;;;;;310.83;294.27;;;;;;;;;;5025004;28;20207;-63
2020/12/02 23:29:11;;;;;;;108.60;103.10;;;;;;;;;;5034368;28;20210;-64
2020/12/02 23:31:43;;;;;;;238.67;226.67;;;;;;;;;;5039892;28;20197;-66
2020/12/02 23:34:12;;;;;;;358.70;338.03;;;;;;;;;;5033047;28;20191;-64
2020/12/02 23:36:42;;;;;;;272.37;259.60;;;;;;;;;;5033179;28;20191;-63
2020/12/02 23:39:12;;;;;;;263.33;251.27;;;;;;;;;;5034211;28;20933;-63
2020/12/02 23:41:46;;;;;;;231.83;220.97;;;;;;;;;;5032960;28;20187;-63
2020/12/02 23:44:18;;;;;;;244.43;232.23;;;;;;;;;;5036689;28;20227;-64
2020/12/02 23:46:54;;;;;;;210.13;200.33;;;;;;;;;;5033155;28;20192;-63
2020/12/02 23:49:36;;;;;;;364.30;344.20;;;;;;;;;;5031764;28;20183;-64
2020/12/02 23:52:08;;;;;;;313.77;296.97;;;;;;;;;;5031293;28;21030;-63
2020/12/02 23:54:34;;;;;;;219.40;208.23;;;;;;;;;;5029704;28;20222;-65
2020/12/02 23:57:01;;;;;;;179.23;169.57;;;;;;;;;;5027466;28;20256;-65
2020/12/02 23:59:27;;;;;;;262.13;248.33;;;;;;;;;;5029246;28;20192;-63
